Time;durP1;ratioP1;P1;durP2;ratioP2;P2;SDS_P1;SDS_P2;PMS_P1;PMS_P2;Temp;Humidity;BMP_temperature;BMP_pressure;BME280_temperature;BME280_humidity;BME280_pressure;Samples;Min_cycle;Max_cycle;Signal;HPM_P1;HPM_P2
2022/11/11 00:01:42;;;;;;;18.23;11.63;;;;;;;8.77;100.00;102793.00;5044962;28;20044;-67
2022/11/11 00:04:08;;;;;;;16.27;10.63;;;;;;;8.82;100.00;102800.72;5044990;28;20043;-67
2022/11/11 00:06:33;;;;;;;15.27;10.93;;;;;;;8.89;100.00;102787.19;5043686;28;20090;-67
2022/11/11 00:08:58;;;;;;;17.80;12.10;;;;;;;8.91;100.00;102798.81;5033303;28;20052;-66
2022/11/11 00:11:23;;;;;;;17.48;12.27;;;;;;;8.92;100.00;102795.03;5045366;28;20098;-66
2022/11/11 00:13:49;;;;;;;17.65;12.48;;;;;;;8.95;100.00;102794.72;5049120;28;20388;-67
2022/11/11 00:16:19;;;;;;;17.05;12.98;;;;;;;8.98;100.00;102784.28;5047759;28;20032;-67
2022/11/11 00:27:06;;;;;;;17.65;13.23;;;;;;;9.02;100.00;102793.88;5048712;28;20040;-67
2022/11/11 00:29:31;;;;;;;19.35;13.38;;;;;;;9.02;100.00;102791.13;5048149;28;20020;-67
2022/11/11 00:35:51;;;;;;;16.98;13.70;;;;;;;9.05;100.00;102796.25;5045554;28;20098;-67
2022/11/11 00:37:26;;;;;;;20.45;14.77;;;;;;;9.06;100.00;102805.31;5047086;28;20440;-67
2022/11/11 00:39:51;;;;;;;20.50;14.55;;;;;;;9.09;100.00;102800.34;5048096;28;20122;-67
2022/11/11 00:42:16;;;;;;;19.45;14.43;;;;;;;9.10;100.00;102809.44;5048538;28;20051;-66
2022/11/11 00:44:41;;;;;;;20.85;15.13;;;;;;;9.18;100.00;102803.94;5048581;28;20089;-66
2022/11/11 00:52:35;;;;;;;17.73;14.45;;;;;;;9.13;100.00;102800.88;5046705;28;20051;-66
2022/11/11 00:55:00;;;;;;;23.25;15.68;;;;;;;9.13;100.00;102811.84;5047868;28;20611;-66
2022/11/11 00:57:25;;;;;;;23.25;16.08;;;;;;;9.14;100.00;102809.94;5046707;28;20044;-67
2022/11/11 00:59:51;;;;;;;19.33;14.38;;;;;;;9.16;100.00;102816.94;5046595;28;20033;-67
2022/11/11 01:02:16;;;;;;;21.83;14.93;;;;;;;9.16;100.00;102825.19;5046996;28;20520;-66
2022/11/11 01:04:41;;;;;;;20.45;15.75;;;;;;;9.17;100.00;102824.16;5047635;28;20021;-67
2022/11/11 01:07:06;;;;;;;18.92;15.30;;;;;;;9.19;100.00;102830.31;5048361;28;20124;-66
2022/11/11 01:09:32;;;;;;;18.92;15.88;;;;;;;9.21;100.00;102827.41;5043936;28;20403;-67
2022/11/11 01:11:57;;;;;;;19.15;15.90;;;;;;;9.22;100.00;102829.97;5047576;28;20040;-66
2022/11/11 01:14:22;;;;;;;22.52;15.63;;;;;;;9.22;100.00;102824.47;5047841;28;20021;-67
2022/11/11 01:16:48;;;;;;;20.45;15.65;;;;;;;9.25;100.00;102829.63;5047273;28;20515;-66
2022/11/11 01:19:13;;;;;;;22.27;15.43;;;;;;;9.27;100.00;102827.56;5044528;28;20077;-66
2022/11/11 01:21:38;;;;;;;20.77;15.93;;;;;;;9.28;100.00;102822.97;5045254;28;20036;-65
2022/11/11 01:24:04;;;;;;;19.55;14.95;;;;;;;9.30;100.00;102823.63;5046471;28;20040;-66
2022/11/11 01:26:29;;;;;;;22.95;16.27;;;;;;;9.33;100.00;102823.28;5045937;28;20037;-67
2022/11/11 01:28:55;;;;;;;21.30;16.08;;;;;;;9.29;100.00;102827.41;5045749;28;20037;-67
2022/11/11 01:31:23;;;;;;;20.75;15.93;;;;;;;9.28;100.00;102814.72;5045396;28;20036;-66
2022/11/11 01:33:48;;;;;;;22.40;15.73;;;;;;;9.31;100.00;102817.97;5044083;28;20103;-67
2022/11/11 01:36:20;;;;;;;19.20;16.00;;;;;;;9.30;100.00;102818.13;5047103;28;20805;-68
2022/11/11 01:38:53;;;;;;;21.33;16.33;;;;;;;9.32;100.00;102814.19;5046050;28;20111;-67
2022/11/11 01:41:32;;;;;;;25.40;15.43;;;;;;;9.32;100.00;102811.44;5047487;28;20375;-67
2022/11/11 01:43:58;;;;;;;21.08;15.82;;;;;;;9.33;100.00;102798.63;5044960;28;20036;-66
2022/11/11 01:46:41;;;;;;;22.42;16.42;;;;;;;9.34;100.00;102800.31;5045665;28;20029;-67
2022/11/11 01:49:33;;;;;;;21.45;16.58;;;;;;;9.33;100.00;102802.22;5026968;28;20033;-66
2022/11/11 01:52:13;;;;;;;25.95;17.38;;;;;;;9.38;100.00;102798.06;5031000;28;20025;-67
2022/11/11 01:54:50;;;;;;;21.88;16.95;;;;;;;9.29;100.00;102795.34;5045813;28;20033;-66
2022/11/11 01:57:27;;;;;;;23.48;17.10;;;;;;;9.27;100.00;102789.16;5045190;28;20032;-67
2022/11/11 01:59:59;;;;;;;22.90;16.38;;;;;;;9.28;100.00;102795.53;5047341;28;20037;-67
2022/11/11 02:02:38;;;;;;;23.45;17.27;;;;;;;9.25;100.00;102790.38;5047121;28;20099;-67
2022/11/11 02:07:49;;;;;;;21.80;16.67;;;;;;;9.29;100.00;102787.13;5046534;28;20610;-66
2022/11/11 02:10:18;;;;;;;24.35;15.60;;;;;;;9.29;100.00;102778.03;5045499;28;20025;-67
2022/11/11 02:15:27;;;;;;;25.75;17.25;;;;;;;9.24;100.00;102772.22;5045547;28;20091;-68
2022/11/11 02:17:53;;;;;;;26.60;16.92;;;;;;;9.31;100.00;102770.50;5045466;28;20029;-66
2022/11/11 02:20:23;;;;;;;25.83;16.88;;;;;;;9.26;100.00;102772.91;5043226;28;20385;-67
2022/11/11 02:23:22;;;;;;;24.35;16.23;;;;;;;9.23;100.00;102773.28;5045656;28;20037;-65
2022/11/11 02:25:50;;;;;;;21.77;16.88;;;;;;;9.23;100.00;102776.00;5045123;28;20040;-67
2022/11/11 02:28:18;;;;;;;24.25;17.40;;;;;;;9.22;100.00;102783.34;5045445;28;20414;-67
2022/11/11 02:30:43;;;;;;;25.42;16.83;;;;;;;9.25;100.00;102784.91;5046872;28;20107;-66
2022/11/11 02:33:08;;;;;;;24.48;16.50;;;;;;;9.22;100.00;102783.34;5046701;28;21216;-67
2022/11/11 02:35:37;;;;;;;23.63;16.55;;;;;;;9.26;100.00;102792.09;5045944;28;20025;-67
2022/11/11 02:38:07;;;;;;;24.10;16.67;;;;;;;9.25;100.00;102790.38;5044400;28;20056;-67
2022/11/11 02:41:55;;;;;;;25.33;16.50;;;;;;;9.23;100.00;102798.78;5045825;28;20057;-66
2022/11/11 02:43:27;;;;;;;24.13;16.25;;;;;;;9.25;100.00;102782.16;5045019;28;20039;-66
2022/11/11 02:45:52;;;;;;;22.88;15.60;;;;;;;9.23;100.00;102779.59;5044308;28;20108;-67
2022/11/11 02:48:18;;;;;;;23.05;16.95;;;;;;;9.23;100.00;102779.59;5045816;28;20025;-66
2022/11/11 02:50:43;;;;;;;24.38;16.88;;;;;;;9.21;100.00;102762.47;5046787;28;20095;-67
2022/11/11 02:53:08;;;;;;;24.63;15.98;;;;;;;9.17;100.00;102762.97;5046288;28;20560;-68
2022/11/11 02:55:34;;;;;;;25.02;16.45;;;;;;;9.15;100.00;102763.16;5045063;28;20704;-66
2022/11/11 02:58:00;;;;;;;26.52;17.55;;;;;;;9.15;100.00;102765.91;5044901;28;20471;-66
2022/11/11 03:00:25;;;;;;;24.98;17.58;;;;;;;9.13;100.00;102773.47;5046290;28;20068;-67
2022/11/11 03:02:50;;;;;;;25.88;17.52;;;;;;;9.13;100.00;102773.47;5046183;28;20025;-67
2022/11/11 03:05:16;;;;;;;26.55;16.98;;;;;;;9.13;100.00;102776.19;5040751;28;20032;-66
2022/11/11 03:07:41;;;;;;;23.08;16.58;;;;;;;9.13;100.00;102781.69;5045405;28;20048;-67
2022/11/11 03:10:07;;;;;;;24.63;16.70;;;;;;;9.12;100.00;102779.94;5046870;28;20033;-67
2022/11/11 03:12:32;;;;;;;25.40;16.55;;;;;;;9.09;100.00;102777.56;5046420;28;20048;-67
2022/11/11 03:14:57;;;;;;;25.10;16.15;;;;;;;9.13;100.00;102772.59;5043937;28;20060;-67
2022/11/11 03:17:41;;;;;;;23.08;15.98;;;;;;;9.10;100.00;102771.06;5046588;28;20383;-67
2022/11/11 03:23:26;;;;;;;24.27;15.63;;;;;;;9.13;100.00;102787.16;5045793;28;20395;-66
2022/11/11 03:25:52;;;;;;;24.48;16.00;;;;;;;9.09;100.00;102780.31;5039877;28;20076;-67
2022/11/11 03:28:19;;;;;;;28.52;16.40;;;;;;;9.08;100.00;102773.13;5046684;28;20060;-68
2022/11/11 03:30:48;;;;;;;22.95;15.23;;;;;;;9.07;100.00;102779.59;5047125;28;20033;-66
2022/11/11 03:33:17;;;;;;;23.15;16.70;;;;;;;9.05;100.00;102773.47;5040391;28;20029;-66
2022/11/11 03:35:45;;;;;;;26.02;15.88;;;;;;;9.07;100.00;102776.88;5046060;28;20033;-67
2022/11/11 03:38:15;;;;;;;25.25;16.10;;;;;;;9.05;100.00;102779.78;5046140;28;20433;-67
2022/11/11 03:40:45;;;;;;;26.67;17.13;;;;;;;9.02;100.00;102777.41;5046661;28;20187;-67
2022/11/11 03:43:11;;;;;;;24.85;16.27;;;;;;;9.01;100.00;102769.34;5048927;28;20537;-69
2022/11/11 03:45:36;;;;;;;27.80;16.70;;;;;;;9.02;100.00;102765.56;5050576;28;20029;-66
2022/11/11 03:48:02;;;;;;;23.13;15.80;;;;;;;9.00;100.00;102756.69;5048726;28;20428;-67
2022/11/11 03:50:27;;;;;;;23.80;15.27;;;;;;;8.99;100.00;102763.19;5049750;28;20033;-68
2022/11/11 03:52:52;;;;;;;22.92;16.02;;;;;;;8.97;100.00;102765.22;5049014;28;20032;-66
2022/11/11 03:55:18;;;;;;;23.48;15.38;;;;;;;8.95;100.00;102761.81;5050526;28;20418;-67
2022/11/11 03:57:45;;;;;;;23.35;15.65;;;;;;;8.94;100.00;102771.09;5049977;28;20032;-67
2022/11/11 04:00:12;;;;;;;22.98;15.00;;;;;;;8.94;100.00;102776.56;5049114;28;20040;-68
2022/11/11 04:10:54;;;;;;;26.52;16.75;;;;;;;8.89;100.00;102795.41;5050912;28;20090;-67
2022/11/11 04:16:06;;;;;;;23.23;15.93;;;;;;;8.87;100.00;102791.97;5048620;28;20035;-66
2022/11/11 04:24:00;;;;;;;23.55;15.00;;;;;;;8.87;100.00;102803.81;5046958;28;20056;-66
2022/11/11 04:26:26;;;;;;;26.80;15.40;;;;;;;8.84;100.00;102809.63;5048453;28;20029;-65
2022/11/11 04:31:35;;;;;;;23.25;15.70;;;;;;;8.84;100.00;102806.88;5030180;28;20769;-67
2022/11/11 04:34:00;;;;;;;25.40;14.57;;;;;;;8.82;100.00;102808.94;5038079;28;20033;-67
2022/11/11 04:36:26;;;;;;;24.45;15.15;;;;;;;8.82;100.00;102814.41;5048189;28;20033;-66
2022/11/11 04:41:35;;;;;;;24.55;14.75;;;;;;;8.82;100.00;102796.09;5047392;28;20047;-66
2022/11/11 04:46:44;;;;;;;25.52;15.18;;;;;;;8.80;100.00;102797.28;5048165;28;20130;-66
2022/11/11 04:49:09;;;;;;;26.48;15.80;;;;;;;8.81;100.00;102790.75;5047621;28;20061;-66
2022/11/11 04:54:18;;;;;;;23.88;15.13;;;;;;;8.79;100.00;102788.22;5047021;28;20055;-67
2022/11/11 04:56:46;;;;;;;26.23;15.48;;;;;;;8.76;100.00;102785.78;5048978;28;20029;-67
2022/11/11 04:59:19;;;;;;;23.65;15.48;;;;;;;8.77;100.00;102793.00;5049187;28;20032;-66
2022/11/11 05:04:28;;;;;;;23.23;15.57;;;;;;;8.74;100.00;102789.75;5046074;28;20087;-66
2022/11/11 05:09:37;;;;;;;25.63;15.60;;;;;;;8.73;100.00;102793.53;5039192;28;20060;-65
2022/11/11 05:12:03;;;;;;;23.17;15.48;;;;;;;8.71;100.00;102798.31;5048111;28;20033;-66
2022/11/11 05:22:42;;;;;;;25.17;15.70;;;;;;;8.64;100.00;102794.53;5047709;28;20098;-66
2022/11/11 05:25:24;;;;;;;26.27;16.27;;;;;;;8.63;100.00;102799.16;5027842;28;20510;-66
2022/11/11 05:27:49;;;;;;;25.50;15.70;;;;;;;8.60;100.00;102795.91;5029197;28;20083;-66
2022/11/11 05:30:15;;;;;;;26.48;16.42;;;;;;;8.59;100.00;102800.53;5041763;28;20045;-66
2022/11/11 05:32:42;;;;;;;24.48;17.05;;;;;;;8.60;100.00;102807.72;5044309;28;20028;-67
2022/11/11 05:35:08;;;;;;;26.88;16.63;;;;;;;8.57;100.00;102808.06;5045205;28;20087;-66
2022/11/11 05:37:34;;;;;;;22.67;15.63;;;;;;;8.57;100.00;102797.97;5043578;28;20042;-66
2022/11/11 05:39:59;;;;;;;27.48;16.27;;;;;;;8.57;100.00;102799.84;5045557;28;20029;-67
2022/11/11 05:42:25;;;;;;;26.45;16.20;;;;;;;8.52;100.00;102805.84;5047598;28;20027;-66
2022/11/11 05:44:50;;;;;;;24.30;15.75;;;;;;;8.51;100.00;102797.75;5046641;28;20037;-68
2022/11/11 05:47:15;;;;;;;23.85;15.57;;;;;;;8.50;100.00;102801.53;5048161;28;20439;-66
2022/11/11 05:49:41;;;;;;;25.73;15.77;;;;;;;8.48;100.00;102800.88;5044563;28;20041;-66
2022/11/11 05:52:09;;;;;;;27.40;15.95;;;;;;;8.42;100.00;102793.34;5045814;28;20037;-66
2022/11/11 05:54:35;;;;;;;25.67;15.98;;;;;;;8.42;100.00;102798.81;5043470;28;20029;-66
2022/11/11 05:57:00;;;;;;;23.48;16.05;;;;;;;8.37;100.00;102798.47;5046559;28;20071;-65
2022/11/11 05:59:26;;;;;;;25.75;16.13;;;;;;;8.35;100.00;102797.72;5045294;28;20033;-66
2022/11/11 06:01:51;;;;;;;23.70;16.13;;;;;;;8.33;100.00;102796.00;5046231;28;20025;-66
2022/11/11 06:04:16;;;;;;;26.00;16.55;;;;;;;8.31;100.00;102795.34;5042224;28;20033;-66
2022/11/11 06:06:42;;;;;;;24.17;15.50;;;;;;;8.30;100.00;102800.94;5044992;28;20021;-67
2022/11/11 06:09:07;;;;;;;25.90;16.25;;;;;;;8.29;100.00;102804.72;5043521;28;20098;-67
2022/11/11 06:11:33;;;;;;;27.17;16.25;;;;;;;8.27;100.00;102812.25;5045320;28;20573;-66
2022/11/11 06:13:58;;;;;;;23.65;15.35;;;;;;;8.23;100.00;102814.47;5044243;28;20028;-66
2022/11/11 06:16:23;;;;;;;27.13;15.63;;;;;;;8.21;100.00;102810.16;5045638;28;20031;-67
2022/11/11 06:18:50;;;;;;;25.65;16.10;;;;;;;8.19;100.00;102810.34;5044782;28;20391;-66
2022/11/11 06:21:16;;;;;;;26.33;15.25;;;;;;;8.19;100.00;102813.09;5045927;28;20040;-66
2022/11/11 06:23:41;;;;;;;26.95;16.67;;;;;;;8.16;100.00;102815.28;5043852;28;20582;-66
2022/11/11 06:26:12;;;;;;;24.05;15.45;;;;;;;8.15;100.00;102816.31;5045596;28;20380;-66
2022/11/11 06:28:51;;;;;;;24.92;15.75;;;;;;;8.19;100.00;102818.56;5045583;28;20438;-67
2022/11/11 06:31:19;;;;;;;25.13;16.45;;;;;;;8.03;100.00;102813.88;5041622;28;20033;-66
2022/11/11 06:33:45;;;;;;;26.88;16.90;;;;;;;8.02;100.00;102822.28;5042579;28;20029;-65
2022/11/11 06:36:12;;;;;;;25.58;17.10;;;;;;;7.99;100.00;102826.19;5045363;28;20033;-68
2022/11/11 06:38:38;;;;;;;27.33;16.53;;;;;;;8.01;100.00;102828.78;5044460;28;20084;-66
2022/11/11 06:41:03;;;;;;;28.15;17.95;;;;;;;7.95;100.00;102835.75;5039775;28;20311;-66
2022/11/11 06:43:29;;;;;;;26.08;17.58;;;;;;;7.93;100.00;102836.94;5044810;28;20029;-66
2022/11/11 06:45:55;;;;;;;28.23;17.73;;;;;;;7.95;100.00;102840.34;5045445;28;20463;-67
2022/11/11 06:48:21;;;;;;;24.15;16.98;;;;;;;7.86;100.00;102839.47;5043958;28;20473;-66
2022/11/11 06:50:47;;;;;;;27.67;17.25;;;;;;;7.85;100.00;102836.88;5040394;28;20036;-67
2022/11/11 06:53:15;;;;;;;27.00;18.02;;;;;;;7.82;100.00;102839.97;5044283;28;20032;-66
2022/11/11 06:55:41;;;;;;;;;;;;;;;7.95;100.00;102854.03;5045608;28;20032;-66
2022/11/11 06:58:18;;;;;;;27.33;15.90;;;;;;;7.79;100.00;102852.09;5044898;28;19970;-67
2022/11/11 07:00:45;;;;;;;28.00;17.13;;;;;;;7.73;100.00;102847.28;5043252;28;20059;-66
2022/11/11 07:03:13;;;;;;;26.95;16.60;;;;;;;7.70;100.00;102842.13;5043955;28;20649;-67
2022/11/11 07:05:38;;;;;;;28.58;17.25;;;;;;;7.67;100.00;102837.00;5043866;28;20057;-67
2022/11/11 07:08:06;;;;;;;27.13;17.60;;;;;;;7.64;100.00;102837.31;5043899;28;20067;-66
2022/11/11 07:10:32;;;;;;;26.23;18.13;;;;;;;7.61;100.00;102848.59;5043468;28;20029;-67
2022/11/11 07:12:58;;;;;;;27.00;17.63;;;;;;;7.57;100.00;102842.56;5044724;28;20348;-66
2022/11/11 07:15:23;;;;;;;26.00;16.80;;;;;;;7.59;100.00;102853.34;5044765;28;20029;-66
2022/11/11 07:17:48;;;;;;;28.27;17.17;;;;;;;7.55;100.00;102852.78;5043389;28;20092;-66
2022/11/11 07:20:14;;;;;;;26.33;17.17;;;;;;;7.51;100.00;102859.63;5043113;28;20033;-66
2022/11/11 07:22:39;;;;;;;26.20;16.60;;;;;;;7.52;100.00;102855.88;5043685;28;20494;-67
2022/11/11 07:25:05;;;;;;;27.08;17.02;;;;;;;7.49;100.00;102865.25;5045085;28;20048;-66
2022/11/11 07:27:30;;;;;;;26.77;17.30;;;;;;;7.48;100.00;102868.16;5044226;28;20056;-66
2022/11/11 07:29:56;;;;;;;28.13;16.83;;;;;;;7.50;100.00;102868.81;5042594;28;20071;-67
2022/11/11 07:32:21;;;;;;;22.15;15.63;;;;;;;7.54;100.00;102870.22;5043390;28;20059;-66
2022/11/11 07:34:46;;;;;;;24.00;15.73;;;;;;;7.52;100.00;102877.75;5040782;28;20036;-66
2022/11/11 07:37:11;;;;;;;24.50;15.85;;;;;;;7.50;100.00;102879.75;5024216;28;20116;-66
2022/11/11 07:39:37;;;;;;;23.20;15.20;;;;;;;7.50;100.00;102877.91;5027729;28;20105;-66
2022/11/11 07:42:02;;;;;;;25.52;16.05;;;;;;;7.50;100.00;102882.50;5043183;28;20029;-66
2022/11/11 07:44:27;;;;;;;20.60;14.52;;;;;;;7.52;100.00;102875.88;5043839;28;20041;-66
2022/11/11 07:46:53;;;;;;;23.50;14.70;;;;;;;7.56;100.00;102872.81;5044344;28;20025;-66
2022/11/11 07:49:18;;;;;;;26.27;14.35;;;;;;;7.59;100.00;102877.94;5043250;28;20428;-66
2022/11/11 07:51:43;;;;;;;25.35;14.50;;;;;;;7.59;100.00;102881.53;5041827;28;20051;-66
2022/11/11 07:54:09;;;;;;;24.08;15.02;;;;;;;7.65;100.00;102897.28;5043964;28;20060;-66
2022/11/11 07:56:34;;;;;;;23.38;15.77;;;;;;;7.65;100.00;102894.56;5041303;28;20475;-65
2022/11/11 07:58:59;;;;;;;23.88;15.18;;;;;;;7.70;100.00;102894.94;5042903;28;20472;-66
2022/11/11 08:01:25;;;;;;;27.25;16.23;;;;;;;7.73;100.00;102907.44;5044173;28;20647;-67
2022/11/11 08:03:50;;;;;;;23.25;14.68;;;;;;;7.80;100.00;102913.97;5040915;28;20513;-67
2022/11/11 08:06:17;;;;;;;22.40;15.50;;;;;;;7.89;100.00;102917.63;5029516;28;20034;-66
2022/11/11 08:08:42;;;;;;;25.95;15.90;;;;;;;7.95;100.00;102916.97;5034043;28;20498;-66
2022/11/11 08:11:07;;;;;;;23.45;15.15;;;;;;;8.02;100.00;102926.25;5039176;28;20037;-66
2022/11/11 08:13:42;;;;;;;25.20;14.93;;;;;;;8.12;100.00;102929.72;5042839;28;20151;-67
2022/11/11 08:16:09;;;;;;;24.42;15.20;;;;;;;8.23;100.00;102926.69;5036323;28;20153;-66
2022/11/11 08:18:35;;;;;;;22.23;14.40;;;;;;;8.37;100.00;102927.16;5031584;28;20502;-66
2022/11/11 08:21:01;;;;;;;23.63;15.52;;;;;;;8.52;100.00;102926.34;5039779;28;20029;-65
2022/11/11 08:23:33;;;;;;;20.50;14.45;;;;;;;8.64;100.00;102924.13;5039097;28;20064;-66
2022/11/11 08:26:04;;;;;;;22.02;12.50;;;;;;;8.81;99.15;102925.88;5039065;28;20056;-65
2022/11/11 08:28:31;;;;;;;22.10;13.93;;;;;;;8.83;98.34;102932.06;5036999;28;20033;-66
2022/11/11 08:30:58;;;;;;;22.55;14.52;;;;;;;8.93;98.62;102931.91;5045534;28;20411;-66
2022/11/11 08:33:24;;;;;;;22.02;14.85;;;;;;;8.99;96.75;102946.81;5042036;28;20523;-65
2022/11/11 08:35:52;;;;;;;21.23;14.68;;;;;;;9.08;96.80;102954.03;5046897;28;20520;-68
2022/11/11 08:38:18;;;;;;;20.65;14.10;;;;;;;9.19;96.20;102940.00;5052072;28;20052;-66
2022/11/11 08:40:43;;;;;;;20.83;13.93;;;;;;;9.30;94.75;102944.28;5045959;28;20071;-67
2022/11/11 08:43:08;;;;;;;22.38;13.88;;;;;;;9.39;94.70;102942.41;5047406;28;20167;-66
2022/11/11 08:45:33;;;;;;;23.30;13.68;;;;;;;9.61;94.63;102955.41;5046466;28;20037;-66
2022/11/11 08:47:59;;;;;;;21.30;14.02;;;;;;;9.68;92.73;102956.44;5046592;28;20021;-66
2022/11/11 08:50:24;;;;;;;19.63;14.10;;;;;;;9.89;91.40;102958.66;5047670;28;20240;-67
2022/11/11 08:52:50;;;;;;;20.15;13.90;;;;;;;10.11;90.76;102962.53;5044860;28;20491;-68
2022/11/11 08:55:17;;;;;;;21.35;14.15;;;;;;;10.45;88.75;102954.03;5045182;28;20435;-66
2022/11/11 08:57:42;;;;;;;18.63;12.82;;;;;;;10.59;86.75;102955.16;5027500;28;20436;-66
2022/11/11 09:00:09;;;;;;;20.35;13.13;;;;;;;10.69;86.29;102950.28;5037689;28;20123;-66
2022/11/11 09:02:35;;;;;;;20.13;13.90;;;;;;;10.87;86.32;102952.78;5046237;28;20221;-67
2022/11/11 09:05:00;;;;;;;22.63;13.43;;;;;;;10.82;85.01;102946.97;5047333;28;20164;-66
2022/11/11 09:07:26;;;;;;;17.77;12.02;;;;;;;10.82;84.59;102952.47;5045101;28;20075;-66
2022/11/11 09:09:51;;;;;;;19.15;12.63;;;;;;;10.84;85.12;102953.97;5047507;28;20028;-66
2022/11/11 09:12:17;;;;;;;18.67;11.73;;;;;;;11.11;83.65;102949.88;5046910;28;20124;-67
2022/11/11 09:14:42;;;;;;;21.83;12.85;;;;;;;11.39;83.26;102952.06;5040543;28;20389;-66
2022/11/11 09:17:07;;;;;;;18.13;11.93;;;;;;;11.78;81.12;102953.78;5026542;28;20025;-66
2022/11/11 09:19:33;;;;;;;17.88;11.45;;;;;;;12.12;79.40;102950.53;5029612;28;20040;-67
2022/11/11 09:21:58;;;;;;;18.00;11.57;;;;;;;12.37;77.54;102946.44;5047098;28;20072;-66
2022/11/11 09:24:23;;;;;;;19.63;12.00;;;;;;;12.56;76.61;102946.88;5045316;28;20033;-67
2022/11/11 09:26:50;;;;;;;15.93;11.55;;;;;;;12.60;76.34;102957.31;5046197;28;20037;-66
2022/11/11 09:29:16;;;;;;;18.52;12.00;;;;;;;12.46;75.60;102955.44;5046925;28;20029;-66
2022/11/11 09:31:41;;;;;;;16.65;12.10;;;;;;;12.54;75.82;102955.34;5046973;28;20025;-66
2022/11/11 09:34:07;;;;;;;17.83;11.32;;;;;;;12.79;75.25;102960.53;5045068;28;20415;-67
2022/11/11 09:36:32;;;;;;;16.33;10.95;;;;;;;13.01;74.29;102953.97;5046330;28;20068;-66
2022/11/11 09:38:58;;;;;;;16.00;10.00;;;;;;;13.19;72.46;102953.56;5046397;28;20025;-66
2022/11/11 09:41:30;;;;;;;15.93;9.95;;;;;;;13.09;72.73;102950.25;5043447;28;20029;-67
2022/11/11 09:44:00;;;;;;;15.13;10.27;;;;;;;12.87;73.19;102949.34;5043324;28;20025;-66
2022/11/11 09:46:53;;;;;;;14.90;10.18;;;;;;;12.98;74.12;102955.25;5046103;28;20276;-66
2022/11/11 09:49:35;;;;;;;17.23;11.88;;;;;;;13.36;72.16;102951.41;5044578;28;20043;-67
2022/11/11 09:52:22;;;;;;;15.43;10.00;;;;;;;13.60;72.42;102963.94;5046797;28;20502;-66
2022/11/11 09:54:54;;;;;;;13.60;10.30;;;;;;;13.72;70.52;102962.34;5046762;28;20040;-66
2022/11/11 09:57:37;;;;;;;14.43;9.48;;;;;;;13.84;70.22;102970.91;5045080;28;20039;-67
2022/11/11 10:00:13;;;;;;;15.20;9.48;;;;;;;14.11;68.64;102967.31;5026408;28;20037;-66
2022/11/11 10:03:05;;;;;;;13.70;10.20;;;;;;;14.13;68.12;102958.81;5025369;28;20056;-66
2022/11/11 10:05:33;;;;;;;15.23;10.15;;;;;;;14.05;67.51;102964.50;5017444;28;20045;-66
2022/11/11 10:08:13;;;;;;;13.70;9.73;;;;;;;14.13;68.60;102964.31;5029754;28;20025;-66
2022/11/11 10:10:44;;;;;;;13.73;9.75;;;;;;;14.00;68.14;102959.59;5044450;28;20112;-66
2022/11/11 10:13:15;;;;;;;14.27;9.55;;;;;;;13.94;68.50;102965.91;5043564;28;20102;-67
2022/11/11 10:15:56;;;;;;;14.25;9.95;;;;;;;14.09;68.16;102979.59;5039407;28;20431;-67
2022/11/11 10:18:49;;;;;;;13.68;9.70;;;;;;;14.47;67.41;102982.81;5044999;28;20407;-66
2022/11/11 10:21:19;;;;;;;13.10;8.82;;;;;;;14.37;66.51;102977.66;5044809;28;20036;-66
2022/11/11 10:23:47;;;;;;;12.00;8.82;;;;;;;14.01;67.11;102981.47;5045930;28;20021;-67
2022/11/11 10:26:26;;;;;;;15.50;9.32;;;;;;;13.98;68.88;102983.78;5045447;28;20028;-67
2022/11/11 10:28:52;;;;;;;14.02;8.73;;;;;;;13.81;68.59;102972.19;5045804;28;20025;-66
2022/11/11 10:31:21;;;;;;;15.85;9.07;;;;;;;13.41;69.17;102976.50;5047918;28;20021;-66
2022/11/11 10:34:03;;;;;;;13.27;8.70;;;;;;;13.42;71.42;102984.56;5047085;28;20432;-68
2022/11/11 10:36:29;;;;;;;14.13;8.93;;;;;;;13.30;70.08;102969.59;5046788;28;20037;-67
2022/11/11 10:38:59;;;;;;;14.20;8.00;;;;;;;13.44;69.74;102973.34;5046043;28;20028;-66
2022/11/11 10:41:32;;;;;;;14.38;8.93;;;;;;;13.45;69.81;102977.81;5027447;28;20053;-66
2022/11/11 10:43:57;;;;;;;13.85;9.02;;;;;;;13.79;69.84;102982.59;5027791;28;20031;-67
2022/11/11 10:46:28;;;;;;;15.20;9.15;;;;;;;13.75;68.54;102979.38;5046560;28;20120;-66
2022/11/11 10:49:06;;;;;;;12.32;9.30;;;;;;;13.70;69.61;102973.59;5042502;28;20109;-67
2022/11/11 10:51:43;;;;;;;14.20;9.32;;;;;;;13.94;69.20;102971.44;5044897;28;20040;-67
2022/11/11 10:54:20;;;;;;;13.02;8.73;;;;;;;14.31;68.42;102972.97;5045790;28;20041;-66
2022/11/11 10:57:01;;;;;;;12.27;8.37;;;;;;;14.49;67.55;102972.44;5047499;28;20025;-67
2022/11/11 10:59:34;;;;;;;11.70;8.43;;;;;;;14.26;67.18;102970.81;5043215;28;20605;-66
2022/11/11 11:02:08;;;;;;;11.82;7.95;;;;;;;14.39;67.07;102977.44;5042521;28;20518;-66
2022/11/11 11:04:41;;;;;;;10.60;7.63;;;;;;;14.47;66.51;102978.19;5046378;28;20029;-67
2022/11/11 11:07:13;;;;;;;12.68;8.40;;;;;;;14.85;65.68;102969.44;5046765;28;20650;-67
2022/11/11 11:10:03;;;;;;;10.27;7.18;;;;;;;14.85;65.30;102968.53;5043183;28;20037;-65
2022/11/11 11:12:51;;;;;;;9.82;6.80;;;;;;;14.61;64.92;102973.56;5045588;28;20124;-66
2022/11/11 11:15:21;;;;;;;9.90;6.75;;;;;;;14.64;65.35;102969.53;5027784;28;20025;-66
2022/11/11 11:18:11;;;;;;;10.63;6.55;;;;;;;14.68;66.61;102963.38;5026556;28;20027;-67
2022/11/11 11:20:36;;;;;;;8.40;5.93;;;;;;;14.68;64.89;102957.84;5027162;28;20120;-66
2022/11/11 11:23:02;;;;;;;9.93;6.25;;;;;;;14.56;65.45;102964.19;5043206;28;20116;-66
2022/11/11 11:25:30;;;;;;;9.50;6.20;;;;;;;14.56;65.76;102961.44;5046667;28;20476;-66
2022/11/11 11:28:12;;;;;;;9.05;6.35;;;;;;;14.56;66.16;102958.66;5045345;28;20029;-67
2022/11/11 11:30:38;;;;;;;8.90;5.38;;;;;;;14.38;65.77;102954.47;5045788;28;20557;-66
2022/11/11 11:33:07;;;;;;;8.20;5.15;;;;;;;14.37;65.82;102955.56;5045892;28;20037;-65
2022/11/11 11:35:37;;;;;;;8.30;5.57;;;;;;;14.31;65.68;102950.84;5045643;28;20092;-66
2022/11/11 11:38:05;;;;;;;7.82;5.10;;;;;;;14.22;66.29;102944.63;5046223;28;20464;-66
2022/11/11 11:40:51;;;;;;;10.27;5.07;;;;;;;14.29;67.03;102944.66;5044449;28;20071;-66
2022/11/11 11:43:32;;;;;;;8.30;5.00;;;;;;;14.46;66.57;102957.09;5030594;28;20109;-66
2022/11/11 11:45:59;;;;;;;7.82;4.80;;;;;;;14.56;65.61;102950.38;5027089;28;20119;-66
2022/11/11 11:48:53;;;;;;;7.63;4.35;;;;;;;14.76;65.21;102956.84;5025494;28;20017;-67
2022/11/11 11:51:41;;;;;;;6.78;4.32;;;;;;;14.66;65.47;102950.84;5036400;28;20029;-66
2022/11/11 11:54:16;;;;;;;;;;;;;;;14.57;66.75;102949.31;5046513;28;20402;-66
2022/11/11 11:56:46;;;;;;;8.63;4.38;;;;;;;14.60;66.12;102941.44;5046495;28;20367;-67
2022/11/11 11:59:17;;;;;;;6.57;4.00;;;;;;;14.86;63.86;102937.94;5046363;28;20498;-66
2022/11/11 12:02:19;;;;;;;8.50;4.70;;;;;;;14.99;64.62;102939.84;5044466;28;20059;-66
2022/11/11 12:04:59;;;;;;;7.60;3.38;;;;;;;14.75;64.26;102939.38;5047134;28;20430;-66
2022/11/11 12:08:07;;;;;;;6.13;3.15;;;;;;;14.74;65.15;102940.41;5047683;28;20043;-66
2022/11/11 12:10:40;;;;;;;5.07;3.22;;;;;;;14.67;64.78;102949.78;5034383;28;20033;-66
2022/11/11 12:13:29;;;;;;;7.55;3.60;;;;;;;14.56;65.15;102951.22;5049470;28;20044;-65
2022/11/11 12:16:24;;;;;;;5.90;3.15;;;;;;;14.49;65.88;102944.78;5044599;28;20032;-66
2022/11/11 12:19:18;;;;;;;5.93;3.38;;;;;;;14.35;66.25;102946.63;5041466;28;20044;-68
2022/11/11 12:22:02;;;;;;;7.03;3.50;;;;;;;14.46;66.16;102934.97;5048136;28;20048;-66
2022/11/11 12:24:45;;;;;;;6.25;3.10;;;;;;;14.43;65.66;102932.59;5048784;28;20041;-66
2022/11/11 12:27:13;;;;;;;5.15;2.33;;;;;;;14.18;65.89;102934.19;5049876;28;20462;-67
2022/11/11 12:29:56;;;;;;;5.63;2.58;;;;;;;14.00;67.14;102927.28;5049891;28;20040;-66